createdAt,value
2018-05-11T00:00:45.921Z,11.90
2018-05-11T00:03:14.811Z,14.53
2018-05-11T00:05:42.530Z,9.53
2018-05-11T00:08:09.922Z,8.00
2018-05-11T00:20:22.338Z,9.63
2018-05-11T00:22:49.305Z,11.37
2018-05-11T00:35:01.328Z,11.77
2018-05-11T00:37:31.178Z,11.17
2018-05-11T00:39:59.838Z,7.50
2018-05-11T00:42:26.590Z,11.70
2018-05-11T00:44:53.782Z,8.57
2018-05-11T00:47:21.732Z,8.60
2018-05-11T01:02:05.413Z,13.57
2018-05-11T01:04:33.446Z,9.80
2018-05-11T01:07:00.403Z,11.20
2018-05-11T01:09:27.042Z,7.63
2018-05-11T01:21:39.319Z,7.00
2018-05-11T01:24:05.885Z,9.10
2018-05-11T01:36:18.763Z,8.03
2018-05-11T01:38:45.975Z,6.73
2018-05-11T01:41:12.663Z,10.50
2018-05-11T01:43:41.143Z,6.97
2018-05-11T01:46:07.964Z,8.27
2018-05-11T02:01:32.927Z,9.07
2018-05-11T02:04:00.191Z,10.10
2018-05-11T02:06:28.406Z,9.63
2018-05-11T02:18:40.680Z,7.27
2018-05-11T02:21:07.500Z,8.30
2018-05-11T02:23:35.031Z,7.03
2018-05-11T02:26:01.610Z,8.87
2018-05-11T02:28:27.983Z,8.23
2018-05-11T02:30:59.208Z,6.60
2018-05-11T02:43:10.919Z,8.40
2018-05-11T02:45:41.786Z,8.20
2018-05-11T02:48:09.276Z,7.80
2018-05-11T02:50:36.392Z,7.70
2018-05-11T02:53:04.243Z,8.77
2018-05-11T02:55:34.910Z,11.07
2018-05-11T03:07:46.550Z,7.03
2018-05-11T03:10:14.596Z,11.07
2018-05-11T03:12:41.380Z,7.37
2018-05-11T03:15:07.903Z,9.57
2018-05-11T03:17:36.289Z,9.10
2018-05-11T03:20:04.421Z,9.10
2018-05-11T03:22:31.149Z,9.87
2018-05-11T03:24:59.472Z,7.27
2018-05-11T03:27:29.509Z,10.07
2018-05-11T03:29:57.236Z,8.87
2018-05-11T03:34:56.398Z,9.37
2018-05-11T03:37:27.168Z,11.53
2018-05-11T03:39:54.416Z,10.53
2018-05-11T03:42:21.957Z,10.80
2018-05-11T03:44:49.140Z,8.63
2018-05-11T03:47:15.854Z,8.57
2018-05-11T03:49:44.515Z,8.77
2018-05-11T03:52:12.522Z,8.83
2018-05-11T03:54:42.187Z,9.80
2018-05-11T03:57:10.994Z,7.97
2018-05-11T03:59:41.006Z,10.43
2018-05-11T04:02:20.988Z,9.90
2018-05-11T04:07:44.878Z,8.27
2018-05-11T04:10:14.264Z,8.83
2018-05-11T04:12:43.783Z,8.97
2018-05-11T04:15:10.861Z,8.87
2018-05-11T04:17:40.472Z,9.97
2018-05-11T04:20:08.526Z,9.73
2018-05-11T04:22:36.004Z,9.00
2018-05-11T04:25:06.025Z,7.17
2018-05-11T04:27:32.791Z,7.67
2018-05-11T04:29:59.104Z,7.97
2018-05-11T04:32:26.886Z,8.53
2018-05-11T04:34:54.492Z,8.43
2018-05-11T04:47:06.198Z,10.70
2018-05-11T04:49:35.215Z,11.27
2018-05-11T04:52:02.496Z,11.13
2018-05-11T04:54:29.680Z,14.57
2018-05-11T04:56:56.962Z,14.50
2018-05-11T04:59:26.630Z,11.23
2018-05-11T05:01:53.386Z,10.70
2018-05-11T05:14:06.415Z,14.03
2018-05-11T05:16:35.578Z,14.70
2018-05-11T05:31:58.221Z,17.47
2018-05-11T05:44:12.113Z,23.73
2018-05-11T05:46:38.689Z,21.50
2018-05-11T05:58:51.048Z,20.03
2018-05-11T06:01:18.518Z,25.67
2018-05-11T06:03:47.548Z,24.93
2018-05-11T06:06:15.639Z,25.50
2018-05-11T06:18:27.032Z,19.33
2018-05-11T06:20:56.492Z,20.90
2018-05-11T06:33:09.049Z,16.97
2018-05-11T06:35:35.789Z,15.37
2018-05-11T06:38:02.255Z,14.60
2018-05-11T06:40:31.457Z,15.07
2018-05-11T06:42:58.151Z,14.33
2018-05-11T06:45:26.349Z,16.97
2018-05-11T06:57:37.909Z,13.40
2018-05-11T07:00:04.732Z,13.57
2018-05-11T07:02:32.283Z,14.70
2018-05-11T07:04:59.887Z,13.50
2018-05-11T07:07:28.908Z,14.57
2018-05-11T07:19:40.485Z,12.30
2018-05-11T07:22:07.541Z,13.17
2018-05-11T07:24:34.224Z,11.60
2018-05-11T07:36:45.670Z,10.80
2018-05-11T07:39:13.732Z,10.60
2018-05-11T07:41:40.743Z,12.00
2018-05-11T07:53:53.118Z,12.73
2018-05-11T08:11:46.285Z,9.37
2018-05-11T08:14:14.274Z,12.10
2018-05-11T08:16:42.823Z,8.67
2018-05-11T08:19:09.205Z,10.07
2018-05-11T08:31:23.435Z,11.23
2018-05-11T08:33:50.034Z,9.77
2018-05-11T08:46:02.306Z,11.80
2018-05-11T08:48:32.451Z,8.53
2018-05-11T08:51:00.494Z,8.97
2018-05-11T08:53:28.180Z,9.50
2018-05-11T08:55:58.333Z,9.80
2018-05-11T08:58:24.938Z,6.73
2018-05-11T09:03:29.155Z,8.23
2018-05-11T09:05:55.536Z,7.00
2018-05-11T09:08:21.881Z,9.43
2018-05-11T09:10:48.754Z,9.90
2018-05-11T09:13:15.375Z,8.33
2018-05-11T09:15:45.274Z,7.03
2018-05-11T09:27:58.096Z,8.50
2018-05-11T09:30:25.088Z,7.83
2018-05-11T09:32:51.959Z,9.13
2018-05-11T09:35:19.683Z,7.13
2018-05-11T09:37:47.105Z,6.43
2018-05-11T09:40:14.618Z,5.70
2018-05-11T09:42:42.548Z,7.13
2018-05-11T09:45:08.854Z,7.50
2018-05-11T09:57:20.720Z,8.27
2018-05-11T10:09:32.780Z,10.70
2018-05-11T10:11:59.958Z,10.17
2018-05-11T10:14:26.542Z,11.27
2018-05-11T10:16:53.428Z,11.50
2018-05-11T10:29:04.859Z,12.57
2018-05-11T10:31:31.117Z,10.60
2018-05-11T10:43:42.456Z,11.30
2018-05-11T10:46:09.002Z,12.50
2018-05-11T10:48:36.541Z,11.93
2018-05-11T10:51:03.102Z,13.80
2018-05-11T10:53:29.680Z,14.83
2018-05-11T10:55:56.257Z,12.93
2018-05-11T10:58:23.015Z,14.60
2018-05-11T11:00:49.293Z,12.57
2018-05-11T11:03:16.374Z,12.33
2018-05-11T11:05:42.960Z,12.33
2018-05-11T11:08:09.320Z,17.87
2018-05-11T11:20:21.402Z,17.43
2018-05-11T11:22:48.666Z,13.67
2018-05-11T11:25:15.744Z,14.47
2018-05-11T11:37:22.349Z,11.57
2018-05-11T11:39:48.623Z,13.63
2018-05-11T11:42:15.015Z,9.63
2018-05-11T11:44:44.146Z,13.63
2018-05-11T11:47:10.436Z,11.63
2018-05-11T11:49:36.738Z,8.73
2018-05-11T11:54:35.030Z,12.90
2018-05-11T11:57:01.398Z,13.03
2018-05-11T12:09:14.015Z,14.23
2018-05-11T12:11:42.334Z,12.23
2018-05-11T12:23:53.735Z,11.47
2018-05-11T12:26:20.207Z,10.83
2018-05-11T12:28:47.428Z,9.03
2018-05-11T12:31:14.588Z,12.47
2018-05-11T12:33:40.944Z,11.00
2018-05-11T12:36:09.366Z,11.57
2018-05-11T12:38:36.677Z,11.63
2018-05-11T12:41:04.759Z,13.20
2018-05-11T12:43:31.133Z,9.60
2018-05-11T12:45:58.671Z,10.93
2018-05-11T12:48:26.120Z,12.17
2018-05-11T12:50:52.891Z,11.43
2018-05-11T12:53:19.629Z,10.20
2018-05-11T12:55:46.528Z,14.50
2018-05-11T13:08:00.688Z,10.93
2018-05-11T13:10:27.847Z,9.37
2018-05-11T13:12:54.166Z,14.40
2018-05-11T13:15:20.885Z,10.20
2018-05-11T13:17:47.300Z,13.40
2018-05-11T13:20:14.591Z,10.93
2018-05-11T13:32:26.072Z,10.47
2018-05-11T13:34:52.541Z,8.90
2018-05-11T13:37:20.687Z,9.20
2018-05-11T13:39:48.863Z,8.50
2018-05-11T13:52:00.518Z,8.47
2018-05-11T14:07:26.889Z,8.83
2018-05-11T14:19:38.364Z,8.47
2018-05-11T14:22:04.671Z,10.00
2018-05-11T14:24:31.203Z,8.60
2018-05-11T14:26:58.275Z,6.37
2018-05-11T14:29:25.436Z,8.00
2018-05-11T14:31:51.758Z,7.83
2018-05-11T14:34:18.358Z,7.53
2018-05-11T14:36:44.644Z,14.40
2018-05-11T14:48:56.850Z,11.10
2018-05-11T14:51:24.039Z,9.27
2018-05-11T14:53:51.733Z,10.77
2018-05-11T15:06:05.498Z,5.97
2018-05-11T15:08:32.361Z,4.67
2018-05-11T15:10:58.661Z,6.13
2018-05-11T15:13:28.950Z,7.80
2018-05-11T15:15:56.046Z,8.57
2018-05-11T15:18:23.038Z,11.17
2018-05-11T15:20:50.134Z,9.07
2018-05-11T15:23:17.202Z,9.30
2018-05-11T15:25:44.269Z,11.90
2018-05-11T15:28:10.893Z,10.37
2018-05-11T15:30:37.255Z,8.13
2018-05-11T15:33:03.949Z,9.97
2018-05-11T15:35:31.164Z,11.47
2018-05-11T15:37:57.504Z,9.83
2018-05-11T15:40:24.736Z,9.20
2018-05-11T15:42:51.041Z,11.10
2018-05-11T15:55:05.132Z,8.03
2018-05-11T15:57:33.706Z,9.20
2018-05-11T15:59:59.998Z,10.73
2018-05-11T16:02:29.754Z,10.60
2018-05-11T16:04:56.736Z,13.17
2018-05-11T16:07:23.035Z,10.90
2018-05-11T16:09:49.560Z,10.83
2018-05-11T16:12:16.401Z,11.93
2018-05-11T16:14:43.017Z,9.57
2018-05-11T16:17:10.051Z,12.60
2018-05-11T16:19:37.031Z,12.27
2018-05-11T16:22:03.315Z,9.03
2018-05-11T16:34:14.732Z,8.63
2018-05-11T16:46:26.371Z,8.33
2018-05-11T17:01:48.277Z,10.53
2018-05-11T17:04:15.641Z,11.77
2018-05-11T17:06:42.972Z,7.90
2018-05-11T17:09:10.251Z,11.13
2018-05-11T17:11:36.540Z,12.47
2018-05-11T17:14:03.058Z,8.77
2018-05-11T17:29:24.525Z,9.03
2018-05-11T17:31:51.417Z,10.37
2018-05-11T17:34:18.619Z,8.97
2018-05-11T17:36:45.500Z,10.57
2018-05-11T17:39:12.148Z,9.53
2018-05-11T17:41:38.633Z,11.20
2018-05-11T17:44:05.525Z,9.47
2018-05-11T17:46:33.452Z,7.23
2018-05-11T17:58:45.788Z,7.53
2018-05-11T18:01:12.927Z,6.17
2018-05-11T18:13:25.256Z,8.23
2018-05-11T18:15:53.994Z,7.77
2018-05-11T18:18:21.321Z,6.40
2018-05-11T18:20:49.666Z,16.30
2018-05-11T18:23:15.952Z,8.77
2018-05-11T18:25:42.485Z,9.53
2018-05-11T18:28:08.779Z,7.67
2018-05-11T18:30:35.542Z,9.03
2018-05-11T18:33:01.982Z,8.00
2018-05-11T18:35:28.280Z,9.70
2018-05-11T18:37:54.931Z,9.43
2018-05-11T18:50:06.303Z,6.77
2018-05-11T18:52:32.658Z,10.77
2018-05-11T18:55:00.354Z,8.47
2018-05-11T18:57:27.554Z,9.03
2018-05-11T18:59:53.965Z,10.37
2018-05-11T19:12:08.809Z,8.67
2018-05-11T19:14:39.187Z,14.43
2018-05-11T19:17:05.843Z,11.87
2018-05-11T19:19:32.187Z,9.83
2018-05-11T19:31:43.942Z,10.20
2018-05-11T19:34:11.263Z,13.40
2018-05-11T19:43:33.822Z,9.70
2018-05-11T19:46:00.948Z,12.60
2018-05-11T19:48:27.352Z,14.23
2018-05-11T19:50:53.697Z,14.33
2018-05-11T19:53:20.050Z,12.40
2018-05-11T19:55:46.361Z,12.37
2018-05-11T19:58:13.490Z,13.47
2018-05-11T20:09:49.856Z,12.43
2018-05-11T20:12:16.218Z,15.20
2018-05-11T20:14:42.573Z,18.40
2018-05-11T20:17:09.772Z,13.87
2018-05-11T20:19:36.112Z,16.77
2018-05-11T20:22:02.515Z,15.03
2018-05-11T20:24:28.878Z,15.60
2018-05-11T20:26:55.224Z,15.10
2018-05-11T20:29:21.648Z,11.33
2018-05-11T20:31:48.029Z,11.30
2018-05-11T20:34:15.236Z,13.00
2018-05-11T20:36:42.481Z,12.40
2018-05-11T20:39:10.062Z,8.63
2018-05-11T20:41:36.471Z,11.77
2018-05-11T20:44:02.891Z,12.33
2018-05-11T20:46:30.350Z,14.63
2018-05-11T20:48:56.675Z,12.57
2018-05-11T20:51:24.134Z,11.63
2018-05-11T20:53:50.447Z,18.80
2018-05-11T20:56:16.796Z,13.43
2018-05-11T20:58:43.128Z,10.50
2018-05-11T21:01:10.314Z,12.23
2018-05-11T21:03:36.645Z,17.40
2018-05-11T21:06:06.216Z,11.90
2018-05-11T21:08:32.628Z,16.60
2018-05-11T21:10:59.801Z,13.10
2018-05-11T21:13:26.182Z,11.60
2018-05-11T21:15:54.762Z,18.53
2018-05-11T21:18:21.963Z,17.07
2018-05-11T21:20:48.985Z,14.57
2018-05-11T21:23:15.347Z,13.00
2018-05-11T21:25:41.748Z,11.93
2018-05-11T21:28:08.203Z,12.77
2018-05-11T21:40:19.704Z,14.33
2018-05-11T21:42:46.152Z,13.33
2018-05-11T21:45:12.679Z,14.47
2018-05-11T21:47:39.019Z,15.27
2018-05-11T21:50:05.451Z,18.83
2018-05-11T21:52:31.894Z,23.13
2018-05-11T21:54:58.331Z,15.80
2018-05-11T21:57:24.762Z,18.10
2018-05-11T21:59:51.133Z,16.47
2018-05-11T22:02:17.520Z,18.40
2018-05-11T22:04:43.950Z,21.97
2018-05-11T22:07:10.360Z,16.73
2018-05-11T22:09:36.724Z,17.77
2018-05-11T22:12:03.884Z,15.37
2018-05-11T22:14:30.266Z,15.27
2018-05-11T22:16:56.696Z,15.43
2018-05-11T22:19:23.078Z,18.17
2018-05-11T22:21:50.267Z,14.50
2018-05-11T22:24:16.725Z,14.77
2018-05-11T22:26:44.136Z,16.70
2018-05-11T22:29:10.577Z,18.40
2018-05-11T22:31:37.031Z,17.30
2018-05-11T22:34:03.498Z,16.40
2018-05-11T22:36:29.936Z,15.20
2018-05-11T22:38:57.085Z,17.40
2018-05-11T22:41:23.477Z,17.47
2018-05-11T22:43:49.954Z,49.87
2018-05-11T22:46:16.399Z,17.33
2018-05-11T22:48:42.804Z,18.23
2018-05-11T22:51:09.215Z,18.70
2018-05-11T22:53:35.638Z,18.20
2018-05-11T22:56:02.056Z,16.70
2018-05-11T22:58:28.566Z,17.93
2018-05-11T23:00:54.986Z,15.23
2018-05-11T23:03:21.441Z,14.90
2018-05-11T23:05:48.615Z,26.33
2018-05-11T23:08:15.008Z,17.57
2018-05-11T23:10:42.239Z,15.83
2018-05-11T23:13:08.629Z,14.53
2018-05-11T23:15:35.015Z,13.90
2018-05-11T23:18:01.496Z,15.27
2018-05-11T23:20:27.893Z,16.63
2018-05-11T23:22:54.308Z,15.23
2018-05-11T23:25:20.761Z,14.83
2018-05-11T23:27:47.243Z,13.80
2018-05-11T23:30:13.653Z,13.93
2018-05-11T23:32:40.040Z,14.47
2018-05-11T23:35:06.495Z,13.83
2018-05-11T23:37:32.912Z,14.13
2018-05-11T23:39:59.383Z,13.67
2018-05-11T23:42:25.785Z,14.07
2018-05-11T23:44:52.223Z,17.03
2018-05-11T23:47:18.671Z,16.10
2018-05-11T23:49:45.118Z,14.83
2018-05-11T23:52:11.490Z,14.23
2018-05-11T23:54:37.892Z,14.57
2018-05-11T23:57:05.151Z,16.87
2018-05-11T23:59:31.649Z,14.47
